Terminal Aerodrome Forecast
Issued by NWS Quad Cities IA IL

Home | Current Version | Previous Version | Text Only | Print | Product List | Glossary On
Versions: 1 2 3 4 5 6 7 8 9 10 11 12 13 14 15 16 17 18 19 20 21 22
000
FTUS43 KDVN 111126
TAFDBQ
TAF
KDBQ 111126Z 1112/1212 18010KT P6SM OVC060
     FM111700 24013KT P6SM BKN070 BKN250
     FM112000 30014G19KT P6SM BKN060 OVC110
     FM112200 32017G25KT P6SM OVC035
     FM120000 33023G32KT P6SM OVC030
     FM120700 33017G24KT P6SM SCT030=

USA.gov is the U.S. government's official web portal to all federal, state and local government web resources and services.